sensor_id;sensor_type;location;lat;lon;timestamp;pressure;altitude;pressure_sealevel;temperature;humidity
78198;BME280;67472;51.554;7.812;2023-02-15T00:01:48;102164.31;;;1.10;100.00
78198;BME280;67472;51.554;7.812;2023-02-15T00:04:32;102159.19;;;1.07;100.00
78198;BME280;67472;51.554;7.812;2023-02-15T00:07:31;102160.88;;;1.10;100.00
78198;BME280;67472;51.554;7.812;2023-02-15T00:10:16;102160.28;;;0.96;100.00
78198;BME280;67472;51.554;7.812;2023-02-15T00:13:02;102156.25;;;0.81;100.00
78198;BME280;67472;51.554;7.812;2023-02-15T00:15:46;102145.97;;;0.74;100.00
78198;BME280;67472;51.554;7.812;2023-02-15T00:18:31;102146.09;;;0.68;100.00
78198;BME280;67472;51.554;7.812;2023-02-15T00:21:15;102141.63;;;0.74;100.00
78198;BME280;67472;51.554;7.812;2023-02-15T00:24:01;102151.94;;;0.80;100.00
78198;BME280;67472;51.554;7.812;2023-02-15T00:26:47;102145.97;;;0.75;100.00
78198;BME280;67472;51.554;7.812;2023-02-15T00:29:32;102136.28;;;0.83;100.00
78198;BME280;67472;51.554;7.812;2023-02-15T00:32:16;102144.81;;;0.90;100.00
78198;BME280;67472;51.554;7.812;2023-02-15T00:35:00;102138.66;;;0.94;100.00
78198;BME280;67472;51.554;7.812;2023-02-15T00:37:45;102143.09;;;0.89;100.00
78198;BME280;67472;51.554;7.812;2023-02-15T00:40:29;102140.38;;;0.93;100.00
78198;BME280;67472;51.554;7.812;2023-02-15T00:43:14;102141.34;;;0.89;100.00
78198;BME280;67472;51.554;7.812;2023-02-15T00:46:00;102135.19;;;0.93;100.00
78198;BME280;67472;51.554;7.812;2023-02-15T00:48:44;102141.31;;;0.91;100.00
78198;BME280;67472;51.554;7.812;2023-02-15T00:51:30;102138.88;;;0.82;100.00
78198;BME280;67472;51.554;7.812;2023-02-15T00:54:14;102144.06;;;0.83;100.00
78198;BME280;67472;51.554;7.812;2023-02-15T00:56:59;102143.38;;;0.75;100.00
78198;BME280;67472;51.554;7.812;2023-02-15T00:59:43;102135.78;;;0.63;100.00
78198;BME280;67472;51.554;7.812;2023-02-15T01:02:28;102137.47;;;0.66;100.00
78198;BME280;67472;51.554;7.812;2023-02-15T01:05:12;102135.84;;;0.60;100.00
78198;BME280;67472;51.554;7.812;2023-02-15T01:07:57;102137.69;;;0.55;100.00
78198;BME280;67472;51.554;7.812;2023-02-15T01:10:41;102140.22;;;0.56;100.00
78198;BME280;67472;51.554;7.812;2023-02-15T01:13:27;102135.75;;;0.65;100.00
78198;BME280;67472;51.554;7.812;2023-02-15T01:16:12;102141.75;;;0.70;100.00
78198;BME280;67472;51.554;7.812;2023-02-15T01:18:56;102144.50;;;0.61;100.00
78198;BME280;67472;51.554;7.812;2023-02-15T01:21:41;102142.03;;;0.53;100.00
78198;BME280;67472;51.554;7.812;2023-02-15T01:24:27;102147.06;;;0.62;100.00
78198;BME280;67472;51.554;7.812;2023-02-15T01:27:11;102141.75;;;0.70;100.00
78198;BME280;67472;51.554;7.812;2023-02-15T01:29:56;102136.50;;;0.71;100.00
78198;BME280;67472;51.554;7.812;2023-02-15T01:32:41;102132.22;;;0.67;100.00
78198;BME280;67472;51.554;7.812;2023-02-15T01:35:27;102130.53;;;0.66;100.00
78198;BME280;67472;51.554;7.812;2023-02-15T01:38:13;102122.19;;;0.49;100.00
78198;BME280;67472;51.554;7.812;2023-02-15T01:40:58;102120.63;;;0.39;100.00
78198;BME280;67472;51.554;7.812;2023-02-15T01:44:02;102120.47;;;0.48;100.00
78198;BME280;67472;51.554;7.812;2023-02-15T01:46:51;102114.50;;;0.41;100.00
78198;BME280;67472;51.554;7.812;2023-02-15T01:49:38;102116.59;;;0.23;100.00
78198;BME280;67472;51.554;7.812;2023-02-15T01:52:25;102112.31;;;0.19;100.00
78198;BME280;67472;51.554;7.812;2023-02-15T01:55:10;102108.25;;;0.04;100.00
78198;BME280;67472;51.554;7.812;2023-02-15T01:58:00;102104.88;;;-0.03;100.00
78198;BME280;67472;51.554;7.812;2023-02-15T02:00:50;102099.81;;;-0.12;100.00
78198;BME280;67472;51.554;7.812;2023-02-15T02:06:29;102096.56;;;-0.23;100.00
78198;BME280;67472;51.554;7.812;2023-02-15T02:09:13;102093.94;;;-0.23;100.00
78198;BME280;67472;51.554;7.812;2023-02-15T02:11:59;102087.13;;;-0.28;100.00
78198;BME280;67472;51.554;7.812;2023-02-15T02:14:45;102092.16;;;-0.19;100.00
78198;BME280;67472;51.554;7.812;2023-02-15T02:29:38;102077.78;;;0.12;100.00
78198;BME280;67472;51.554;7.812;2023-02-15T02:41:32;102074.88;;;-0.19;100.00
78198;BME280;67472;51.554;7.812;2023-02-15T02:47:30;102059.88;;;-0.58;100.00
78198;BME280;67472;51.554;7.812;2023-02-15T02:50:22;102057.25;;;-0.55;100.00
78198;BME280;67472;51.554;7.812;2023-02-15T02:53:06;102053.88;;;-0.60;100.00
78198;BME280;67472;51.554;7.812;2023-02-15T02:56:08;102060.88;;;-0.65;100.00
78198;BME280;67472;51.554;7.812;2023-02-15T02:59:02;102060.75;;;-0.58;100.00
78198;BME280;67472;51.554;7.812;2023-02-15T03:01:57;102056.56;;;-0.65;100.00
78198;BME280;67472;51.554;7.812;2023-02-15T03:04:48;102059.72;;;-0.46;100.00
78198;BME280;67472;51.554;7.812;2023-02-15T03:07:46;102056.25;;;-0.45;100.00
78198;BME280;67472;51.554;7.812;2023-02-15T03:10:34;102052.69;;;-0.39;100.00
78198;BME280;67472;51.554;7.812;2023-02-15T03:13:20;102053.50;;;-0.36;100.00
78198;BME280;67472;51.554;7.812;2023-02-15T03:16:06;102056.16;;;-0.40;100.00
78198;BME280;67472;51.554;7.812;2023-02-15T03:19:17;102058.78;;;-0.42;100.00
78198;BME280;67472;51.554;7.812;2023-02-15T03:22:07;102055.31;;;-0.41;100.00
78198;BME280;67472;51.554;7.812;2023-02-15T03:25:00;102056.16;;;-0.39;100.00
78198;BME280;67472;51.554;7.812;2023-02-15T03:27:49;102056.44;;;-0.57;100.00
78198;BME280;67472;51.554;7.812;2023-02-15T03:30:40;102043.44;;;-0.55;100.00
78198;BME280;67472;51.554;7.812;2023-02-15T03:33:27;102046.91;;;-0.58;100.00
78198;BME280;67472;51.554;7.812;2023-02-15T03:39:19;102046.16;;;-0.65;100.00
78198;BME280;67472;51.554;7.812;2023-02-15T03:42:11;102041.97;;;-0.73;100.00
78198;BME280;67472;51.554;7.812;2023-02-15T03:45:08;102043.69;;;-0.72;100.00
78198;BME280;67472;51.554;7.812;2023-02-15T03:47:56;102032.44;;;-0.71;100.00
78198;BME280;67472;51.554;7.812;2023-02-15T03:50:40;102031.56;;;-0.72;100.00
78198;BME280;67472;51.554;7.812;2023-02-15T03:53:45;102035.66;;;-0.57;100.00
78198;BME280;67472;51.554;7.812;2023-02-15T03:56:33;102042.50;;;-0.50;100.00
78198;BME280;67472;51.554;7.812;2023-02-15T03:59:18;102045.00;;;-0.45;100.00
78198;BME280;67472;51.554;7.812;2023-02-15T04:02:24;102044.13;;;-0.44;100.00
78198;BME280;67472;51.554;7.812;2023-02-15T04:05:10;102045.88;;;-0.45;100.00
78198;BME280;67472;51.554;7.812;2023-02-15T04:07:55;102041.53;;;-0.44;100.00
78198;BME280;67472;51.554;7.812;2023-02-15T04:10:40;102042.22;;;-0.33;100.00
78198;BME280;67472;51.554;7.812;2023-02-15T04:13:37;102049.97;;;-0.32;100.00
78198;BME280;67472;51.554;7.812;2023-02-15T04:16:22;102035.25;;;-0.31;100.00
78198;BME280;67472;51.554;7.812;2023-02-15T04:19:06;102039.66;;;-0.36;100.00
78198;BME280;67472;51.554;7.812;2023-02-15T04:22:09;102033.47;;;-0.28;100.00
78198;BME280;67472;51.554;7.812;2023-02-15T04:25:12;102034.66;;;-0.47;100.00
78198;BME280;67472;51.554;7.812;2023-02-15T04:27:56;102029.78;;;-0.68;100.00
78198;BME280;67472;51.554;7.812;2023-02-15T04:30:41;102021.38;;;-0.84;100.00
78198;BME280;67472;51.554;7.812;2023-02-15T04:33:26;102021.50;;;-0.93;100.00
78198;BME280;67472;51.554;7.812;2023-02-15T04:36:10;102020.53;;;-0.86;100.00
78198;BME280;67472;51.554;7.812;2023-02-15T04:38:54;102019.00;;;-0.99;100.00
78198;BME280;67472;51.554;7.812;2023-02-15T04:41:39;102033.78;;;-1.05;100.00
78198;BME280;67472;51.554;7.812;2023-02-15T04:44:23;102021.69;;;-1.05;100.00
78198;BME280;67472;51.554;7.812;2023-02-15T04:47:07;102020.72;;;-0.98;100.00
78198;BME280;67472;51.554;7.812;2023-02-15T04:49:52;102018.09;;;-0.96;100.00
78198;BME280;67472;51.554;7.812;2023-02-15T04:52:36;102018.94;;;-0.94;100.00
78198;BME280;67472;51.554;7.812;2023-02-15T04:55:21;102011.31;;;-1.06;100.00
78198;BME280;67472;51.554;7.812;2023-02-15T04:58:05;102015.72;;;-1.11;100.00
78198;BME280;67472;51.554;7.812;2023-02-15T05:00:50;102007.88;;;-1.05;100.00
78198;BME280;67472;51.554;7.812;2023-02-15T05:03:35;102008.75;;;-1.08;100.00
78198;BME280;67472;51.554;7.812;2023-02-15T05:06:19;101998.44;;;-1.13;100.00
78198;BME280;67472;51.554;7.812;2023-02-15T05:09:03;102000.31;;;-1.22;100.00
78198;BME280;67472;51.554;7.812;2023-02-15T05:11:48;101995.97;;;-1.20;100.00
78198;BME280;67472;51.554;7.812;2023-02-15T05:14:32;101999.31;;;-1.10;100.00
78198;BME280;67472;51.554;7.812;2023-02-15T05:17:17;101997.69;;;-1.19;100.00
78198;BME280;67472;51.554;7.812;2023-02-15T05:20:03;101996.81;;;-1.20;100.00
78198;BME280;67472;51.554;7.812;2023-02-15T05:22:47;101994.97;;;-1.11;100.00
78198;BME280;67472;51.554;7.812;2023-02-15T05:25:32;101990.69;;;-1.14;100.00
78198;BME280;67472;51.554;7.812;2023-02-15T05:28:37;101993.28;;;-1.14;100.00
78198;BME280;67472;51.554;7.812;2023-02-15T05:31:21;101997.72;;;-1.24;100.00
78198;BME280;67472;51.554;7.812;2023-02-15T05:34:06;101993.25;;;-1.13;100.00
78198;BME280;67472;51.554;7.812;2023-02-15T05:36:50;101989.94;;;-1.22;100.00
78198;BME280;67472;51.554;7.812;2023-02-15T05:39:34;101995.22;;;-1.30;100.00
78198;BME280;67472;51.554;7.812;2023-02-15T05:42:19;101990.97;;;-1.35;100.00
78198;BME280;67472;51.554;7.812;2023-02-15T05:45:04;101996.13;;;-1.32;100.00
78198;BME280;67472;51.554;7.812;2023-02-15T05:47:50;101998.78;;;-1.37;100.00
78198;BME280;67472;51.554;7.812;2023-02-15T05:50:34;101990.16;;;-1.39;100.00
78198;BME280;67472;51.554;7.812;2023-02-15T05:53:18;101995.38;;;-1.40;100.00
78198;BME280;67472;51.554;7.812;2023-02-15T05:56:04;101992.66;;;-1.31;100.00
78198;BME280;67472;51.554;7.812;2023-02-15T05:58:48;101997.75;;;-1.25;100.00
78198;BME280;67472;51.554;7.812;2023-02-15T06:01:33;101984.81;;;-1.27;100.00
78198;BME280;67472;51.554;7.812;2023-02-15T06:04:17;101986.56;;;-1.29;100.00
78198;BME280;67472;51.554;7.812;2023-02-15T06:07:02;101990.03;;;-1.30;100.00
78198;BME280;67472;51.554;7.812;2023-02-15T06:09:46;101984.94;;;-1.34;100.00
78198;BME280;67472;51.554;7.812;2023-02-15T06:12:31;101989.22;;;-1.33;100.00
78198;BME280;67472;51.554;7.812;2023-02-15T06:15:15;101987.56;;;-1.37;100.00
78198;BME280;67472;51.554;7.812;2023-02-15T06:18:00;101985.03;;;-1.43;100.00
78198;BME280;67472;51.554;7.812;2023-02-15T06:20:48;101984.97;;;-1.37;100.00
78198;BME280;67472;51.554;7.812;2023-02-15T06:23:32;101986.63;;;-1.32;100.00
78198;BME280;67472;51.554;7.812;2023-02-15T06:26:17;101984.88;;;-1.33;100.00
78198;BME280;67472;51.554;7.812;2023-02-15T06:29:02;101984.03;;;-1.32;100.00
78198;BME280;67472;51.554;7.812;2023-02-15T06:31:46;101991.72;;;-1.26;100.00
78198;BME280;67472;51.554;7.812;2023-02-15T06:34:31;101997.78;;;-1.27;100.00
78198;BME280;67472;51.554;7.812;2023-02-15T06:37:15;101989.91;;;-1.21;100.00
78198;BME280;67472;51.554;7.812;2023-02-15T06:40:00;101996.78;;;-1.18;100.00
78198;BME280;67472;51.554;7.812;2023-02-15T06:42:45;101992.41;;;-1.13;100.00
78198;BME280;67472;51.554;7.812;2023-02-15T06:45:29;101985.47;;;-1.13;100.00
78198;BME280;67472;51.554;7.812;2023-02-15T06:48:13;101986.41;;;-1.18;100.00
78198;BME280;67472;51.554;7.812;2023-02-15T06:50:58;101992.44;;;-1.15;100.00
78198;BME280;67472;51.554;7.812;2023-02-15T06:53:42;101995.19;;;-1.25;100.00
78198;BME280;67472;51.554;7.812;2023-02-15T06:56:27;101985.69;;;-1.26;100.00
78198;BME280;67472;51.554;7.812;2023-02-15T06:59:11;101986.50;;;-1.23;100.00
78198;BME280;67472;51.554;7.812;2023-02-15T07:01:56;101986.47;;;-1.20;100.00
78198;BME280;67472;51.554;7.812;2023-02-15T07:04:40;101983.75;;;-1.12;100.00
78198;BME280;67472;51.554;7.812;2023-02-15T07:07:25;101989.84;;;-1.16;100.00
78198;BME280;67472;51.554;7.812;2023-02-15T07:10:09;101985.50;;;-1.14;100.00
78198;BME280;67472;51.554;7.812;2023-02-15T07:12:53;101988.00;;;-1.06;100.00
78198;BME280;67472;51.554;7.812;2023-02-15T07:15:38;101983.59;;;-1.01;100.00
78198;BME280;67472;51.554;7.812;2023-02-15T07:18:22;101988.81;;;-1.03;100.00
78198;BME280;67472;51.554;7.812;2023-02-15T07:21:07;101982.84;;;-1.08;100.00
78198;BME280;67472;51.554;7.812;2023-02-15T07:23:52;101983.69;;;-1.07;100.00
78198;BME280;67472;51.554;7.812;2023-02-15T07:26:36;101978.44;;;-1.03;100.00
78198;BME280;67472;51.554;7.812;2023-02-15T07:29:20;101978.31;;;-0.95;100.00
78198;BME280;67472;51.554;7.812;2023-02-15T07:32:05;101973.84;;;-0.84;100.00
78198;BME280;67472;51.554;7.812;2023-02-15T07:34:49;101980.72;;;-0.83;100.00
78198;BME280;67472;51.554;7.812;2023-02-15T07:37:34;101973.53;;;-0.66;100.00
78198;BME280;67472;51.554;7.812;2023-02-15T07:40:19;101968.41;;;-0.68;100.00
78198;BME280;67472;51.554;7.812;2023-02-15T07:43:03;101972.47;;;-0.53;100.00
78198;BME280;67472;51.554;7.812;2023-02-15T07:45:48;101974.22;;;-0.53;100.00
78198;BME280;67472;51.554;7.812;2023-02-15T07:48:33;101976.56;;;-0.38;100.00
78198;BME280;67472;51.554;7.812;2023-02-15T07:51:17;101959.97;;;-0.30;100.00
78198;BME280;67472;51.554;7.812;2023-02-15T07:54:02;101966.69;;;-0.18;100.00
78198;BME280;67472;51.554;7.812;2023-02-15T07:56:46;101964.69;;;-0.04;100.00
78198;BME280;67472;51.554;7.812;2023-02-15T07:59:30;101954.03;;;0.11;100.00
78198;BME280;67472;51.554;7.812;2023-02-15T08:02:15;101959.03;;;0.20;100.00
78198;BME280;67472;51.554;7.812;2023-02-15T08:04:59;101959.81;;;0.24;100.00
78198;BME280;67472;51.554;7.812;2023-02-15T08:07:44;101944.03;;;0.33;100.00
78198;BME280;67472;51.554;7.812;2023-02-15T08:10:28;101942.84;;;0.49;100.00
78198;BME280;67472;51.554;7.812;2023-02-15T08:13:31;101944.16;;;0.68;100.00
78198;BME280;67472;51.554;7.812;2023-02-15T08:16:15;101947.44;;;0.76;100.00
78198;BME280;67472;51.554;7.812;2023-02-15T08:19:03;101942.84;;;0.89;100.00
78198;BME280;67472;51.554;7.812;2023-02-15T08:21:50;101953.84;;;1.00;100.00
78198;BME280;67472;51.554;7.812;2023-02-15T08:24:36;101943.16;;;1.12;100.00
78198;BME280;67472;51.554;7.812;2023-02-15T08:27:21;101940.94;;;1.31;100.00
78198;BME280;67472;51.554;7.812;2023-02-15T08:30:11;101935.38;;;1.46;100.00
78198;BME280;67472;51.554;7.812;2023-02-15T08:32:55;101940.84;;;1.69;100.00
78198;BME280;67472;51.554;7.812;2023-02-15T08:35:39;101934.22;;;1.90;100.00
78198;BME280;67472;51.554;7.812;2023-02-15T08:38:24;101931.22;;;2.05;100.00
78198;BME280;67472;51.554;7.812;2023-02-15T08:41:31;101919.81;;;2.38;100.00
78198;BME280;67472;51.554;7.812;2023-02-15T08:44:16;101902.50;;;2.65;100.00
78198;BME280;67472;51.554;7.812;2023-02-15T08:47:01;101907.97;;;2.85;100.00
78198;BME280;67472;51.554;7.812;2023-02-15T08:49:47;101905.81;;;2.98;100.00
78198;BME280;67472;51.554;7.812;2023-02-15T08:52:32;101898.56;;;3.07;100.00
78198;BME280;67472;51.554;7.812;2023-02-15T08:55:16;101890.38;;;3.18;100.00
78198;BME280;67472;51.554;7.812;2023-02-15T08:58:00;101887.38;;;3.30;100.00
78198;BME280;67472;51.554;7.812;2023-02-15T09:00:45;101882.63;;;3.41;100.00
78198;BME280;67472;51.554;7.812;2023-02-15T09:03:29;101879.91;;;3.69;100.00
78198;BME280;67472;51.554;7.812;2023-02-15T09:06:14;101878.19;;;3.92;100.00
78198;BME280;67472;51.554;7.812;2023-02-15T09:08:59;101875.47;;;4.19;100.00
78198;BME280;67472;51.554;7.812;2023-02-15T09:11:45;101873.47;;;4.48;100.00
78198;BME280;67472;51.554;7.812;2023-02-15T09:14:30;101879.09;;;4.83;100.00
78198;BME280;67472;51.554;7.812;2023-02-15T09:17:14;101878.59;;;5.17;100.00
78198;BME280;67472;51.554;7.812;2023-02-15T09:19:59;101870.28;;;5.27;100.00
78198;BME280;67472;51.554;7.812;2023-02-15T09:22:44;101849.72;;;5.38;100.00
78198;BME280;67472;51.554;7.812;2023-02-15T09:25:28;101849.31;;;5.67;100.00
78198;BME280;67472;51.554;7.812;2023-02-15T09:28:13;101832.47;;;5.93;100.00
78198;BME280;67472;51.554;7.812;2023-02-15T09:31:25;101833.69;;;6.05;100.00
78198;BME280;67472;51.554;7.812;2023-02-15T09:34:08;101826.75;;;6.22;100.00
78198;BME280;67472;51.554;7.812;2023-02-15T09:36:52;101810.88;;;6.44;100.00
78198;BME280;67472;51.554;7.812;2023-02-15T09:39:39;101805.00;;;6.56;100.00
78198;BME280;67472;51.554;7.812;2023-02-15T09:48:41;101766.66;;;7.05;100.00
78198;BME280;67472;51.554;7.812;2023-02-15T09:54:44;101748.13;;;7.58;100.00
78198;BME280;67472;51.554;7.812;2023-02-15T10:10:15;101714.25;;;7.85;100.00
78198;BME280;67472;51.554;7.812;2023-02-15T10:19:03;101690.44;;;8.49;100.00
78198;BME280;67472;51.554;7.812;2023-02-15T10:28:10;101683.25;;;8.96;100.00
78198;BME280;67472;51.554;7.812;2023-02-15T10:31:06;101679.66;;;9.12;100.00
78198;BME280;67472;51.554;7.812;2023-02-15T10:34:18;101688.91;;;9.33;100.00
78198;BME280;67472;51.554;7.812;2023-02-15T10:37:23;101691.13;;;9.67;100.00
78198;BME280;67472;51.554;7.812;2023-02-15T10:44:55;101668.63;;;10.02;100.00
78198;BME280;67472;51.554;7.812;2023-02-15T10:56:24;101660.78;;;10.42;100.00
78198;BME280;67472;51.554;7.812;2023-02-15T11:02:10;101652.50;;;10.86;100.00
78198;BME280;67472;51.554;7.812;2023-02-15T11:05:41;101643.00;;;10.70;100.00
78198;BME280;67472;51.554;7.812;2023-02-15T11:08:29;101621.72;;;10.59;100.00
78198;BME280;67472;51.554;7.812;2023-02-15T11:11:31;101622.91;;;10.81;100.00
78198;BME280;67472;51.554;7.812;2023-02-15T11:14:37;101617.94;;;10.89;100.00
78198;BME280;67472;51.554;7.812;2023-02-15T11:17:33;101619.09;;;11.22;100.00
78198;BME280;67472;51.554;7.812;2023-02-15T11:20:30;101588.53;;;11.55;100.00
78198;BME280;67472;51.554;7.812;2023-02-15T11:23:16;101590.34;;;11.54;100.00
78198;BME280;67472;51.554;7.812;2023-02-15T11:26:04;101591.56;;;11.25;100.00
78198;BME280;67472;51.554;7.812;2023-02-15T11:29:50;101593.41;;;11.48;100.00
78198;BME280;67472;51.554;7.812;2023-02-15T11:38:11;101565.09;;;12.32;94.18
78198;BME280;67472;51.554;7.812;2023-02-15T11:41:02;101555.69;;;11.94;90.83
78198;BME280;67472;51.554;7.812;2023-02-15T11:46:40;101578.38;;;11.85;91.65
78198;BME280;67472;51.554;7.812;2023-02-15T11:49:30;101567.28;;;11.80;91.77
78198;BME280;67472;51.554;7.812;2023-02-15T11:52:16;101569.41;;;11.99;91.66
78198;BME280;67472;51.554;7.812;2023-02-15T11:55:12;101567.28;;;12.04;90.71
78198;BME280;67472;51.554;7.812;2023-02-15T12:00:45;101574.94;;;12.87;89.95
78198;BME280;67472;51.554;7.812;2023-02-15T12:03:54;101555.09;;;13.26;86.88
78198;BME280;67472;51.554;7.812;2023-02-15T12:06:45;101538.31;;;12.81;83.62
78198;BME280;67472;51.554;7.812;2023-02-15T12:09:45;101549.13;;;12.78;84.58
78198;BME280;67472;51.554;7.812;2023-02-15T12:12:34;101545.78;;;13.21;84.36
78198;BME280;67472;51.554;7.812;2023-02-15T12:15:30;101534.50;;;13.50;82.35
78198;BME280;67472;51.554;7.812;2023-02-15T12:21:30;101522.09;;;13.51;80.65
78198;BME280;67472;51.554;7.812;2023-02-15T12:27:20;101523.09;;;13.71;80.78
78198;BME280;67472;51.554;7.812;2023-02-15T12:36:12;101492.97;;;14.54;75.52
78198;BME280;67472;51.554;7.812;2023-02-15T12:42:13;101466.41;;;14.94;71.04
78198;BME280;67472;51.554;7.812;2023-02-15T12:45:01;101451.22;;;14.76;68.77
78198;BME280;67472;51.554;7.812;2023-02-15T12:47:46;101461.34;;;14.91;68.59
78198;BME280;67472;51.554;7.812;2023-02-15T12:50:31;101465.41;;;14.95;69.20
78198;BME280;67472;51.554;7.812;2023-02-15T12:53:31;101462.34;;;15.00;68.34
78198;BME280;67472;51.554;7.812;2023-02-15T12:56:26;101454.66;;;15.06;66.44
78198;BME280;67472;51.554;7.812;2023-02-15T12:59:13;101459.38;;;14.93;66.56
78198;BME280;67472;51.554;7.812;2023-02-15T13:02:06;101451.25;;;14.85;65.67
78198;BME280;67472;51.554;7.812;2023-02-15T13:05:10;101456.88;;;15.01;66.31
78198;BME280;67472;51.554;7.812;2023-02-15T13:08:14;101446.25;;;15.01;65.99
78198;BME280;67472;51.554;7.812;2023-02-15T13:11:10;101433.06;;;14.90;64.76
78198;BME280;67472;51.554;7.812;2023-02-15T13:13:57;101433.72;;;14.73;64.53
78198;BME280;67472;51.554;7.812;2023-02-15T13:16:44;101421.94;;;14.76;63.75
78198;BME280;67472;51.554;7.812;2023-02-15T13:19:35;101407.56;;;14.88;62.95
78198;BME280;67472;51.554;7.812;2023-02-15T13:25:23;101405.63;;;14.99;62.63
78198;BME280;67472;51.554;7.812;2023-02-15T13:28:13;101385.03;;;15.01;61.08
78198;BME280;67472;51.554;7.812;2023-02-15T13:30:59;101386.03;;;15.10;60.95
78198;BME280;67472;51.554;7.812;2023-02-15T13:34:09;101380.72;;;15.19;60.09
78198;BME280;67472;51.554;7.812;2023-02-15T13:39:53;101381.72;;;15.28;59.49
78198;BME280;67472;51.554;7.812;2023-02-15T13:42:44;101353.13;;;15.30;58.45
78198;BME280;67472;51.554;7.812;2023-02-15T14:06:51;101295.53;;;15.58;53.64
78198;BME280;67472;51.554;7.812;2023-02-15T14:13:44;101303.53;;;15.48;53.70
78198;BME280;67472;51.554;7.812;2023-02-15T14:17:04;101312.22;;;15.50;53.51
78198;BME280;67472;51.554;7.812;2023-02-15T14:20:14;101301.84;;;15.47;53.54
78198;BME280;67472;51.554;7.812;2023-02-15T14:26:37;101314.88;;;15.21;54.54
78198;BME280;67472;51.554;7.812;2023-02-15T14:29:39;101323.28;;;15.36;54.76
78198;BME280;67472;51.554;7.812;2023-02-15T14:35:18;101312.94;;;15.52;53.61
78198;BME280;67472;51.554;7.812;2023-02-15T14:44:15;101289.94;;;15.32;52.64
78198;BME280;67472;51.554;7.812;2023-02-15T14:47:26;101278.47;;;15.32;52.06
78198;BME280;67472;51.554;7.812;2023-02-15T14:50:40;101282.66;;;15.15;52.60
78198;BME280;67472;51.554;7.812;2023-02-15T14:56:21;101297.78;;;15.53;53.56
78198;BME280;67472;51.554;7.812;2023-02-15T15:02:08;101279.78;;;15.64;52.05
78198;BME280;67472;51.554;7.812;2023-02-15T15:05:00;101274.91;;;15.97;51.98
78198;BME280;67472;51.554;7.812;2023-02-15T15:07:47;101260.72;;;15.78;51.26
78198;BME280;67472;51.554;7.812;2023-02-15T15:10:45;101269.88;;;15.66;51.94
78198;BME280;67472;51.554;7.812;2023-02-15T15:16:46;101280.63;;;15.74;52.52
78198;BME280;67472;51.554;7.812;2023-02-15T15:22:32;101267.00;;;15.12;52.51
78198;BME280;67472;51.554;7.812;2023-02-15T15:34:59;101294.31;;;14.26;55.28
78198;BME280;67472;51.554;7.812;2023-02-15T15:47:40;101326.00;;;13.57;57.93
78198;BME280;67472;51.554;7.812;2023-02-15T15:50:31;101336.94;;;13.43;58.81
78198;BME280;67472;51.554;7.812;2023-02-15T15:53:20;101346.81;;;13.21;59.81
78198;BME280;67472;51.554;7.812;2023-02-15T15:56:09;101357.47;;;13.10;60.31
78198;BME280;67472;51.554;7.812;2023-02-15T15:58:58;101374.88;;;12.91;61.81
78198;BME280;67472;51.554;7.812;2023-02-15T16:01:46;101383.69;;;12.81;62.69
78198;BME280;67472;51.554;7.812;2023-02-15T16:04:33;101378.50;;;12.68;63.22
78198;BME280;67472;51.554;7.812;2023-02-15T16:10:16;101385.28;;;12.28;65.26
78198;BME280;67472;51.554;7.812;2023-02-15T16:13:05;101396.72;;;12.39;66.67
78198;BME280;67472;51.554;7.812;2023-02-15T16:15:52;101408.28;;;12.16;67.45
78198;BME280;67472;51.554;7.812;2023-02-15T16:18:38;101410.63;;;11.75;69.01
78198;BME280;67472;51.554;7.812;2023-02-15T16:21:35;101420.34;;;11.40;70.71
78198;BME280;67472;51.554;7.812;2023-02-15T16:27:45;101430.81;;;10.94;74.17
78198;BME280;67472;51.554;7.812;2023-02-15T16:30:33;101427.34;;;10.81;75.22
78198;BME280;67472;51.554;7.812;2023-02-15T16:33:17;101434.34;;;10.69;76.14
78198;BME280;67472;51.554;7.812;2023-02-15T16:36:04;101439.75;;;10.55;77.87
78198;BME280;67472;51.554;7.812;2023-02-15T16:41:36;101455.75;;;10.15;82.89
78198;BME280;67472;51.554;7.812;2023-02-15T16:44:21;101463.91;;;9.98;86.22
78198;BME280;67472;51.554;7.812;2023-02-15T16:47:14;101464.00;;;9.84;88.23
78198;BME280;67472;51.554;7.812;2023-02-15T16:50:02;101467.81;;;9.80;90.53
78198;BME280;67472;51.554;7.812;2023-02-15T16:52:48;101464.69;;;9.61;91.31
78198;BME280;67472;51.554;7.812;2023-02-15T16:55:38;101469.28;;;9.45;92.57
78198;BME280;67472;51.554;7.812;2023-02-15T17:01:24;101471.06;;;9.18;97.58
78198;BME280;67472;51.554;7.812;2023-02-15T17:04:30;101487.09;;;9.00;100.00
78198;BME280;67472;51.554;7.812;2023-02-15T17:07:17;101487.06;;;8.88;100.00
78198;BME280;67472;51.554;7.812;2023-02-15T17:10:02;101482.72;;;8.73;100.00
78198;BME280;67472;51.554;7.812;2023-02-15T17:15:43;101489.22;;;8.53;100.00
78198;BME280;67472;51.554;7.812;2023-02-15T17:18:33;101496.16;;;8.40;100.00
78198;BME280;67472;51.554;7.812;2023-02-15T17:21:25;101502.97;;;8.14;100.00
78198;BME280;67472;51.554;7.812;2023-02-15T17:24:22;101509.69;;;8.04;100.00
78198;BME280;67472;51.554;7.812;2023-02-15T17:27:18;101519.94;;;7.94;100.00
78198;BME280;67472;51.554;7.812;2023-02-15T17:30:13;101513.06;;;7.92;100.00
78198;BME280;67472;51.554;7.812;2023-02-15T17:33:03;101506.56;;;7.83;100.00
78198;BME280;67472;51.554;7.812;2023-02-15T17:39:19;101495.53;;;7.77;100.00
78198;BME280;67472;51.554;7.812;2023-02-15T17:42:04;101503.59;;;7.74;100.00
78198;BME280;67472;51.554;7.812;2023-02-15T17:44:49;101502.19;;;7.53;100.00
78198;BME280;67472;51.554;7.812;2023-02-15T17:47:34;101505.97;;;7.33;100.00
78198;BME280;67472;51.554;7.812;2023-02-15T17:50:26;101499.69;;;7.20;100.00
78198;BME280;67472;51.554;7.812;2023-02-15T17:53:17;101490.97;;;7.04;100.00
78198;BME280;67472;51.554;7.812;2023-02-15T17:56:02;101489.53;;;6.98;100.00
78198;BME280;67472;51.554;7.812;2023-02-15T17:58:53;101493.69;;;7.02;100.00